Time;durP1;ratioP1;P1;durP2;ratioP2;P2;SDS_P1;SDS_P2;PMS_P1;PMS_P2;Temp;Humidity;BMP_temperature;BMP_pressure;BME280_temperature;BME280_humidity;BME280_pressure;Samples;Min_cycle;Max_cycle;Signal;HPM_P1;HPM_P2
2022/06/03 00:01:03;;;;;;;20.35;18.02;;;;;;;10.96;100.00;99692.16;2089135;28;20241;-72
2022/06/03 00:02:14;;;;;;;19.60;17.88;;;;;;;10.92;100.00;99702.56;2091206;28;20524;-71
2022/06/03 00:03:37;;;;;;;19.85;17.90;;;;;;;10.88;100.00;99696.22;2090333;28;20725;-72
2022/06/03 00:05:00;;;;;;;19.15;17.65;;;;;;;10.87;100.00;99688.50;2090861;28;20179;-71
2022/06/03 00:06:13;;;;;;;21.38;17.83;;;;;;;10.88;100.00;99706.09;2090471;28;20203;-72
2022/06/03 00:07:24;;;;;;;19.02;17.10;;;;;;;10.84;100.00;99697.84;2090275;28;20206;-71
2022/06/03 00:08:45;;;;;;;19.55;17.70;;;;;;;10.81;100.00;99701.09;2090590;28;20183;-72
2022/06/03 00:10:01;;;;;;;18.92;16.90;;;;;;;10.74;100.00;99709.41;2091184;28;20167;-72
2022/06/03 00:11:15;;;;;;;19.13;17.48;;;;;;;10.69;100.00;99709.47;2090293;28;20692;-72
2022/06/03 00:12:28;;;;;;;19.10;17.50;;;;;;;10.69;100.00;99706.81;2090694;28;20290;-72
2022/06/03 00:13:47;;;;;;;19.38;17.73;;;;;;;10.66;100.00;99710.03;2090232;28;20215;-72
2022/06/03 00:14:59;;;;;;;18.80;17.17;;;;;;;10.62;100.00;99708.22;2090615;28;20179;-72
2022/06/03 00:16:08;;;;;;;17.92;16.45;;;;;;;10.60;100.00;99711.16;2090975;28;20542;-73
2022/06/03 00:17:23;;;;;;;18.58;17.05;;;;;;;10.59;100.00;99708.75;2089936;28;20588;-72
2022/06/03 00:18:48;;;;;;;18.30;16.70;;;;;;;10.57;100.00;99716.25;2090223;28;20237;-72
2022/06/03 00:19:58;;;;;;;19.52;17.92;;;;;;;10.57;100.00;99714.38;2090905;28;20183;-72
2022/06/03 00:21:02;;;;;;;19.90;18.05;;;;;;;10.57;100.00;99708.22;2090533;28;20169;-72
2022/06/03 00:22:16;;;;;;;19.77;17.83;;;;;;;10.57;100.00;99719.69;2090921;28;20171;-72
2022/06/03 00:23:46;;;;;;;18.40;17.00;;;;;;;10.61;100.00;99715.41;2091089;28;20171;-72
2022/06/03 00:25:09;;;;;;;18.45;16.85;;;;;;;10.59;100.00;99711.41;2091105;28;20171;-72
2022/06/03 00:26:19;;;;;;;18.67;17.25;;;;;;;10.60;100.00;99715.66;2090787;28;20202;-72
2022/06/03 00:27:51;;;;;;;17.58;16.35;;;;;;;10.63;100.00;99709.78;2090126;28;20203;-72
2022/06/03 00:29:04;;;;;;;19.20;17.65;;;;;;;10.71;100.00;99709.97;2077757;28;20207;-71
2022/06/03 00:30:18;;;;;;;18.73;17.15;;;;;;;10.73;100.00;99707.81;2090056;28;20214;-72
2022/06/03 00:31:36;;;;;;;18.00;16.60;;;;;;;10.85;100.00;99701.31;2090127;28;20232;-72
2022/06/03 00:33:05;;;;;;;18.77;17.15;;;;;;;10.87;100.00;99704.50;2090485;28;20637;-72
2022/06/03 00:34:21;;;;;;;19.02;17.38;;;;;;;10.93;100.00;99703.38;2090935;28;20176;-72
2022/06/03 00:35:49;;;;;;;18.30;16.80;;;;;;;10.96;100.00;99700.94;2090960;28;20183;-72
2022/06/03 00:37:01;;;;;;;18.10;16.60;;;;;;;10.94;100.00;99689.72;2064844;28;20288;-71
2022/06/03 00:38:17;;;;;;;19.08;17.45;;;;;;;10.95;100.00;99691.34;2089688;28;20223;-71
2022/06/03 00:39:42;;;;;;;18.48;16.83;;;;;;;10.91;100.00;99695.66;2090751;28;20178;-72
2022/06/03 00:40:53;;;;;;;18.40;16.90;;;;;;;10.89;100.00;99689.81;2086170;28;20195;-72
2022/06/03 00:42:03;;;;;;;19.20;17.60;;;;;;;10.87;100.00;99688.50;2083254;28;20219;-71
2022/06/03 00:43:18;;;;;;;17.52;16.10;;;;;;;10.83;100.00;99693.59;2090424;28;20222;-71
2022/06/03 00:44:43;;;;;;;17.90;16.60;;;;;;;10.76;100.00;99691.25;2090760;28;20274;-71
2022/06/03 00:45:55;;;;;;;17.85;16.30;;;;;;;10.68;100.00;99694.50;2090720;28;20209;-72
2022/06/03 00:47:06;;;;;;;17.85;16.38;;;;;;;10.64;100.00;99695.38;2090644;28;20171;-71
2022/06/03 00:48:21;;;;;;;17.70;16.45;;;;;;;10.58;100.00;99697.28;2089968;28;20282;-72
2022/06/03 00:49:45;;;;;;;18.52;16.83;;;;;;;10.51;100.00;99690.66;2090243;28;20230;-71
2022/06/03 00:50:57;;;;;;;18.58;17.08;;;;;;;10.48;100.00;99697.38;2091005;28;20183;-72
2022/06/03 00:52:12;;;;;;;18.60;17.10;;;;;;;10.41;100.00;99697.69;2090458;28;20203;-71
2022/06/03 00:53:29;;;;;;;18.08;16.52;;;;;;;10.36;100.00;99691.59;2090756;28;20166;-72
2022/06/03 00:54:56;;;;;;;18.90;17.38;;;;;;;10.34;100.00;99691.88;2089948;28;20197;-72
2022/06/03 00:56:32;;;;;;;21.67;17.60;;;;;;;10.29;100.00;99689.25;2087334;28;20257;-72
2022/06/03 00:57:53;;;;;;;19.17;17.10;;;;;;;10.27;100.00;99696.75;2090648;28;20609;-71
2022/06/03 00:59:02;;;;;;;17.90;16.50;;;;;;;10.27;100.00;99687.94;2090828;28;20173;-71
2022/06/03 01:00:09;;;;;;;18.75;17.27;;;;;;;10.22;100.00;99688.75;2090712;28;20171;-71
2022/06/03 01:01:12;;;;;;;18.40;17.10;;;;;;;10.17;100.00;99684.25;2090723;28;20174;-71
2022/06/03 01:02:27;;;;;;;19.17;17.60;;;;;;;10.14;100.00;99692.78;2090557;28;20245;-71
2022/06/03 01:03:41;;;;;;;20.17;17.33;;;;;;;10.12;100.00;99689.59;2090723;28;20184;-71
2022/06/03 01:05:01;;;;;;;18.75;17.15;;;;;;;10.10;100.00;99690.97;2090550;28;20640;-71
2022/06/03 01:06:23;;;;;;;18.13;16.67;;;;;;;10.08;100.00;99699.25;2090172;28;20194;-71
2022/06/03 01:07:31;;;;;;;19.02;17.10;;;;;;;10.06;100.00;99698.69;2089922;28;20669;-71
2022/06/03 01:08:45;;;;;;;19.38;17.48;;;;;;;10.02;100.00;99700.34;2082681;28;20184;-71
2022/06/03 01:10:04;;;;;;;18.52;16.83;;;;;;;10.01;100.00;99704.06;2090179;28;20167;-74
2022/06/03 01:11:18;;;;;;;19.40;17.67;;;;;;;9.96;100.00;99695.31;2089785;28;20213;-71
2022/06/03 01:12:58;;;;;;;19.25;17.40;;;;;;;9.93;100.00;99702.00;2090179;28;20615;-71
2022/06/03 01:14:09;;;;;;;20.48;18.38;;;;;;;9.90;100.00;99700.69;2089812;28;20652;-71
2022/06/03 01:15:20;;;;;;;20.70;18.50;;;;;;;9.88;100.00;99700.13;2090231;28;20203;-71
2022/06/03 01:16:34;;;;;;;20.55;18.40;;;;;;;9.88;100.00;99700.13;2090806;28;20611;-71
2022/06/03 01:17:43;;;;;;;18.83;17.33;;;;;;;9.83;100.00;99694.84;2090394;28;20641;-71
2022/06/03 01:18:50;;;;;;;19.92;18.10;;;;;;;9.79;100.00;99693.00;2090705;28;20545;-72
2022/06/03 01:20:03;;;;;;;19.33;17.38;;;;;;;9.77;100.00;99700.47;2090728;28;20176;-71
2022/06/03 01:21:19;;;;;;;19.23;17.73;;;;;;;9.78;100.00;99694.88;2090044;28;20172;-71
2022/06/03 01:22:33;;;;;;;19.05;17.10;;;;;;;9.82;100.00;99695.13;2090665;28;20257;-71
2022/06/03 01:24:09;;;;;;;18.77;17.20;;;;;;;9.86;100.00;99704.16;2089802;28;20183;-71
2022/06/03 01:25:25;;;;;;;18.55;17.02;;;;;;;9.84;100.00;99699.13;2090315;28;20622;-72
2022/06/03 01:26:34;;;;;;;18.63;16.88;;;;;;;9.82;100.00;99700.47;2089758;28;20249;-71
2022/06/03 01:28:12;;;;;;;18.83;17.13;;;;;;;9.82;100.00;99708.47;2089757;28;20198;-72
2022/06/03 01:29:33;;;;;;;19.42;17.70;;;;;;;9.78;100.00;99704.72;2089966;28;20219;-72
2022/06/03 01:30:49;;;;;;;19.42;17.92;;;;;;;9.82;100.00;99703.13;2090698;28;20190;-72
2022/06/03 01:32:44;;;;;;;18.90;17.30;;;;;;;9.79;100.00;99707.13;2090653;28;20183;-72
2022/06/03 01:33:59;;;;;;;19.50;18.00;;;;;;;9.74;100.00;99709.03;2089911;28;20223;-71
2022/06/03 01:35:37;;;;;;;18.65;17.25;;;;;;;9.68;100.00;99712.78;2083143;28;20625;-71
2022/06/03 01:36:48;;;;;;;18.17;16.70;;;;;;;9.63;100.00;99714.38;2073893;28;20224;-71
2022/06/03 01:37:53;;;;;;;18.70;16.98;;;;;;;9.62;100.00;99722.66;2089972;28;20270;-71
2022/06/03 01:39:07;;;;;;;18.13;16.73;;;;;;;9.61;100.00;99721.06;2090324;28;20559;-72
2022/06/03 01:40:50;;;;;;;18.85;17.30;;;;;;;9.61;100.00;99721.06;2089765;28;20194;-74
2022/06/03 01:42:13;;;;;;;19.10;17.50;;;;;;;9.60;100.00;99709.63;2084150;28;20206;-73
2022/06/03 01:43:43;;;;;;;18.75;17.33;;;;;;;9.59;100.00;99720.53;2084057;28;20194;-71
2022/06/03 01:45:01;;;;;;;18.73;16.98;;;;;;;9.57;100.00;99717.38;2085286;28;20207;-71
2022/06/03 01:46:12;;;;;;;17.55;16.27;;;;;;;9.53;100.00;99719.75;2091952;28;20197;-71
2022/06/03 01:47:48;;;;;;;18.25;16.60;;;;;;;9.48;100.00;99714.47;2096973;28;20196;-71
2022/06/03 01:49:10;;;;;;;18.77;17.17;;;;;;;9.47;100.00;99718.22;2097885;28;20197;-71
2022/06/03 01:50:29;;;;;;;18.92;17.52;;;;;;;9.48;100.00;99711.00;2095487;28;20228;-71
2022/06/03 01:51:58;;;;;;;20.75;17.77;;;;;;;9.54;100.00;99717.88;2089183;28;20575;-71
2022/06/03 01:53:16;;;;;;;19.63;17.88;;;;;;;9.55;100.00;99714.94;2090222;28;20202;-71
2022/06/03 01:54:47;;;;;;;19.65;18.15;;;;;;;9.56;100.00;99719.22;2090292;28;20185;-71
2022/06/03 01:56:24;;;;;;;19.08;17.42;;;;;;;9.56;100.00;99723.75;2090341;28;20179;-71
2022/06/03 01:57:52;;;;;;;19.10;17.40;;;;;;;9.60;100.00;99720.28;2086952;28;20664;-71
2022/06/03 01:59:24;;;;;;;19.17;17.58;;;;;;;9.65;100.00;99716.00;2087620;28;20206;-71
2022/06/03 02:00:30;;;;;;;18.80;17.20;;;;;;;9.67;100.00;99719.19;2090127;28;20179;-71
2022/06/03 02:02:07;;;;;;;19.48;17.67;;;;;;;9.66;100.00;99718.38;2090272;28;20207;-71
2022/06/03 02:03:25;;;;;;;19.23;17.67;;;;;;;9.67;100.00;99719.19;2090346;28;20214;-71
2022/06/03 02:04:47;;;;;;;18.10;16.77;;;;;;;9.66;100.00;99728.25;2090475;28;20202;-71
2022/06/03 02:06:11;;;;;;;18.70;17.20;;;;;;;9.63;100.00;99734.91;2089555;28;20289;-71
2022/06/03 02:07:54;;;;;;;18.73;17.33;;;;;;;9.60;100.00;99732.78;2084721;28;20214;-71
2022/06/03 02:09:14;;;;;;;19.55;17.83;;;;;;;9.55;100.00;99727.47;2080841;28;20206;-72
2022/06/03 02:10:46;;;;;;;18.20;16.80;;;;;;;9.51;100.00;99731.75;2090406;28;20575;-71
2022/06/03 02:12:21;;;;;;;18.17;16.77;;;;;;;9.46;100.00;99731.78;2090243;28;20213;-71
2022/06/03 02:13:55;;;;;;;18.67;16.98;;;;;;;9.43;100.00;99730.47;2088819;28;20290;-71
2022/06/03 02:15:22;;;;;;;18.90;17.15;;;;;;;9.40;100.00;99730.22;2090349;28;20194;-71
2022/06/03 02:16:43;;;;;;;17.92;16.60;;;;;;;9.38;100.00;99727.00;2090440;28;20186;-71
2022/06/03 02:18:20;;;;;;;18.70;16.98;;;;;;;9.42;100.00;99728.06;2090431;28;20574;-71
2022/06/03 02:19:44;;;;;;;18.38;16.90;;;;;;;9.44;100.00;99734.72;2056560;28;20300;-71
2022/06/03 02:21:08;;;;;;;20.23;17.40;;;;;;;9.48;100.00;99738.44;2092623;28;20314;-71
2022/06/03 02:22:32;;;;;;;19.48;17.77;;;;;;;9.50;100.00;99736.28;2089622;28;20218;-74
2022/06/03 02:24:10;;;;;;;17.48;16.10;;;;;;;9.44;100.00;99737.38;2089865;28;20190;-71
2022/06/03 02:25:24;;;;;;;18.15;16.65;;;;;;;9.39;100.00;99742.72;2070916;28;20230;-72
2022/06/03 02:26:53;;;;;;;17.90;16.40;;;;;;;9.38;100.00;99743.78;2090444;28;20249;-71
2022/06/03 02:28:11;;;;;;;17.95;16.40;;;;;;;9.42;100.00;99744.03;2089943;28;20210;-71
2022/06/03 02:31:23;;;;;;;17.58;16.15;;;;;;;9.38;100.00;99742.97;2089463;28;20236;-72
2022/06/03 02:33:00;;;;;;;18.08;16.67;;;;;;;9.32;100.00;99739.56;2090125;28;20172;-72
2022/06/03 02:34:36;;;;;;;17.85;16.00;;;;;;;9.29;100.00;99740.06;2056836;28;20232;-72
2022/06/03 02:36:12;;;;;;;18.05;16.55;;;;;;;9.25;100.00;99739.81;2056997;28;20253;-71
2022/06/03 02:37:56;;;;;;;17.08;15.77;;;;;;;9.21;100.00;99737.97;2081145;28;20223;-71
2022/06/03 02:39:04;;;;;;;19.17;17.27;;;;;;;9.19;100.00;99742.75;2090160;28;20191;-71
2022/06/03 02:40:28;;;;;;;19.33;17.73;;;;;;;9.20;100.00;99745.16;2089433;28;20195;-72
2022/06/03 02:41:57;;;;;;;18.42;17.02;;;;;;;9.18;100.00;99747.28;2091182;28;20255;-71
2022/06/03 02:43:35;;;;;;;19.75;17.70;;;;;;;9.16;100.00;99746.78;2091784;28;20582;-71
2022/06/03 02:44:57;;;;;;;18.92;17.13;;;;;;;9.12;100.00;99737.75;2075978;28;20203;-71
2022/06/03 02:46:33;;;;;;;19.70;17.70;;;;;;;9.13;100.00;99743.88;2091459;28;20494;-71
2022/06/03 02:48:03;;;;;;;19.75;17.98;;;;;;;9.14;100.00;99745.44;2091661;28;20225;-72
2022/06/03 02:49:28;;;;;;;19.70;17.73;;;;;;;9.12;100.00;99744.91;2058134;28;20212;-72
2022/06/03 02:50:46;;;;;;;18.38;16.95;;;;;;;9.11;100.00;99743.31;2091679;28;20182;-72
2022/06/03 02:52:36;;;;;;;19.17;17.67;;;;;;;9.09;100.00;99745.44;2090503;28;20226;-72
2022/06/03 02:54:02;;;;;;;20.20;18.55;;;;;;;9.01;100.00;99747.59;2080897;28;20241;-72
2022/06/03 02:55:38;;;;;;;18.90;17.15;;;;;;;9.04;100.00;99752.41;2091611;28;20206;-72
2022/06/03 02:56:51;;;;;;;19.95;18.20;;;;;;;9.06;100.00;99754.78;2087711;28;20238;-72
2022/06/03 02:58:08;;;;;;;19.75;17.75;;;;;;;9.07;100.00;99754.50;2091660;28;20705;-72
2022/06/03 02:59:31;;;;;;;20.20;18.50;;;;;;;9.04;100.00;99738.28;2091522;28;20607;-71
2022/06/03 03:00:44;;;;;;;21.13;19.00;;;;;;;9.04;100.00;99748.94;2091655;28;20172;-72
2022/06/03 03:01:57;;;;;;;20.00;17.90;;;;;;;9.07;100.00;99759.84;2090878;28;20191;-72
2022/06/03 03:03:14;;;;;;;20.17;18.40;;;;;;;9.05;100.00;99746.00;2091162;28;20585;-71
2022/06/03 03:04:22;;;;;;;20.60;18.80;;;;;;;9.03;100.00;99753.47;2091598;28;20183;-71
2022/06/03 03:05:55;;;;;;;19.50;17.80;;;;;;;9.02;100.00;99757.16;2091588;28;20225;-72
2022/06/03 03:07:21;;;;;;;21.45;19.40;;;;;;;9.02;100.00;99751.84;2091262;28;20238;-72
2022/06/03 03:08:50;;;;;;;19.92;17.98;;;;;;;8.99;100.00;99763.03;2090809;28;20187;-72
2022/06/03 03:10:24;;;;;;;19.45;17.60;;;;;;;9.00;100.00;99764.63;2091092;28;20202;-72
2022/06/03 03:11:58;;;;;;;19.65;18.05;;;;;;;8.99;100.00;99755.06;2088708;28;20690;-71
2022/06/03 03:13:45;;;;;;;19.92;18.35;;;;;;;8.99;100.00;99757.72;2088548;28;20236;-71
2022/06/03 03:15:28;;;;;;;20.48;18.38;;;;;;;9.00;100.00;99761.97;2063987;28;20196;-71
2022/06/03 03:16:41;;;;;;;19.00;17.27;;;;;;;9.02;100.00;99762.50;2026366;29;20266;-71
2022/06/03 03:17:56;;;;;;;19.52;17.85;;;;;;;9.01;100.00;99766.22;2018811;29;20205;-72
2022/06/03 03:19:43;;;;;;;19.85;18.15;;;;;;;9.03;100.00;99764.09;2020376;29;20295;-73
2022/06/03 03:21:27;;;;;;;19.52;17.92;;;;;;;9.05;100.00;99769.16;2025683;28;20606;-71
2022/06/03 03:23:11;;;;;;;19.30;17.80;;;;;;;9.06;100.00;99763.56;2063076;28;20582;-72
2022/06/03 03:24:35;;;;;;;20.38;18.70;;;;;;;9.09;100.00;99767.53;2074013;28;20204;-72
2022/06/03 03:25:54;;;;;;;19.35;17.67;;;;;;;9.07;100.00;99767.03;2090657;28;20602;-72
2022/06/03 03:27:12;;;;;;;20.10;18.25;;;;;;;9.07;100.00;99765.16;2091020;28;20242;-72
2022/06/03 03:28:37;;;;;;;20.00;18.05;;;;;;;9.06;100.00;99768.88;2091564;28;20179;-72
2022/06/03 03:30:04;;;;;;;19.58;17.88;;;;;;;9.11;100.00;99767.28;2090511;28;20293;-71
2022/06/03 03:31:30;;;;;;;20.20;18.30;;;;;;;9.09;100.00;99764.09;2086094;28;20230;-71
2022/06/03 03:33:05;;;;;;;20.10;18.52;;;;;;;9.13;100.00;99767.81;2090898;28;20202;-71
2022/06/03 03:34:17;;;;;;;21.20;19.20;;;;;;;9.14;100.00;99758.75;2082602;28;20206;-71
2022/06/03 03:35:36;;;;;;;20.70;18.88;;;;;;;9.29;100.00;99762.16;2090896;28;20625;-71
2022/06/03 03:37:16;;;;;;;21.02;19.35;;;;;;;9.38;100.00;99766.94;2090205;28;20254;-71
2022/06/03 03:39:02;;;;;;;20.20;18.40;;;;;;;9.47;100.00;99763.50;2090904;28;20201;-71
2022/06/03 03:40:54;;;;;;;19.63;18.13;;;;;;;9.46;100.00;99764.53;2087630;28;20301;-71
2022/06/03 03:42:19;;;;;;;20.42;18.70;;;;;;;9.45;100.00;99768.25;2076088;28;20649;-71
2022/06/03 03:43:48;;;;;;;20.60;18.67;;;;;;;9.50;100.00;99762.94;2091311;28;20202;-71
2022/06/03 03:45:10;;;;;;;21.60;18.75;;;;;;;9.55;100.00;99762.91;2073856;28;20562;-71
2022/06/03 03:47:00;;;;;;;20.17;18.42;;;;;;;9.57;100.00;99767.97;2090911;28;20625;-72
2022/06/03 03:48:55;;;;;;;19.90;18.30;;;;;;;9.56;100.00;99761.06;2091238;28;20195;-71
2022/06/03 03:50:34;;;;;;;20.83;18.98;;;;;;;9.56;100.00;99771.72;2057645;28;20286;-72
2022/06/03 03:51:57;;;;;;;19.65;18.05;;;;;;;9.59;100.00;99771.16;2053571;28;20244;-71
2022/06/03 03:53:29;;;;;;;20.25;18.55;;;;;;;9.60;100.00;99768.22;2090447;28;20198;-72
2022/06/03 03:55:00;;;;;;;19.77;18.15;;;;;;;9.64;100.00;99771.13;2086332;28;20195;-73
2022/06/03 03:56:33;;;;;;;20.55;18.73;;;;;;;9.72;100.00;99769.78;2082403;28;20210;-73
2022/06/03 03:58:11;;;;;;;21.13;19.00;;;;;;;9.77;100.00;99772.44;2091302;28;20629;-71
2022/06/03 03:59:54;;;;;;;20.77;18.77;;;;;;;9.78;100.00;99768.69;2074361;28;20227;-71
2022/06/03 04:01:36;;;;;;;20.00;18.30;;;;;;;9.82;100.00;99772.41;2091070;28;20546;-71
2022/06/03 04:03:09;;;;;;;20.65;18.80;;;;;;;9.84;100.00;99778.28;2091162;28;20227;-71
2022/06/03 04:04:40;;;;;;;19.95;18.30;;;;;;;9.89;100.00;99776.34;2090278;28;20207;-71
2022/06/03 04:06:01;;;;;;;20.80;18.83;;;;;;;9.94;100.00;99778.22;2090868;28;20172;-71
2022/06/03 04:07:29;;;;;;;19.50;17.75;;;;;;;9.97;100.00;99782.19;2090887;28;20684;-73
2022/06/03 04:08:46;;;;;;;19.50;17.90;;;;;;;10.02;100.00;99772.31;2082614;28;20261;-71
2022/06/03 04:10:14;;;;;;;19.20;17.73;;;;;;;10.04;100.00;99786.16;2090970;28;20248;-71
2022/06/03 04:11:48;;;;;;;19.75;18.17;;;;;;;10.11;100.00;99784.00;2087948;28;20207;-70
2022/06/03 04:13:19;;;;;;;20.27;18.35;;;;;;;10.18;100.00;99779.16;2088476;28;20544;-71
2022/06/03 04:14:58;;;;;;;20.15;18.23;;;;;;;10.20;100.00;99777.00;2074649;28;20533;-71
2022/06/03 04:16:42;;;;;;;19.92;18.17;;;;;;;10.32;100.00;99775.91;2090187;28;20199;-71
2022/06/03 04:18:23;;;;;;;19.98;18.15;;;;;;;10.38;100.00;99788.94;2079626;28;20289;-73
2022/06/03 04:19:58;;;;;;;19.95;18.15;;;;;;;10.45;100.00;99783.31;2088596;28;20257;-73
2022/06/03 04:21:18;;;;;;;19.42;17.73;;;;;;;10.51;100.00;99781.38;2072948;28;20227;-73
2022/06/03 04:22:47;;;;;;;19.42;17.73;;;;;;;10.55;100.00;99782.44;2090157;28;20199;-72
2022/06/03 04:24:30;;;;;;;20.02;18.23;;;;;;;10.61;100.00;99787.47;2090204;28;20625;-73
2022/06/03 04:26:08;;;;;;;20.70;18.90;;;;;;;10.67;100.00;99781.00;2065463;28;20216;-72
2022/06/03 04:27:38;;;;;;;23.08;19.38;;;;;;;10.73;100.00;99787.09;2083568;28;20209;-73
2022/06/03 04:28:59;;;;;;;21.30;19.25;;;;;;;10.79;100.00;99788.66;2070384;28;20207;-73
2022/06/03 04:30:33;;;;;;;21.80;19.63;;;;;;;10.83;100.00;99778.22;2084614;28;20223;-71
2022/06/03 04:32:08;;;;;;;21.52;19.35;;;;;;;10.92;100.00;99788.00;2090671;28;20257;-73
2022/06/03 04:33:46;;;;;;;21.30;19.27;;;;;;;11.00;100.00;99789.28;2090681;28;20231;-70
2022/06/03 04:35:18;;;;;;;22.08;20.00;;;;;;;11.07;100.00;99787.09;2090351;28;20240;-71
2022/06/03 04:37:07;;;;;;;22.30;20.00;;;;;;;11.13;100.00;99791.31;2090031;28;20302;-73
2022/06/03 04:38:52;;;;;;;20.85;19.02;;;;;;;11.19;100.00;99784.81;2090918;28;20175;-71
2022/06/03 04:40:18;;;;;;;22.15;19.85;;;;;;;11.26;100.00;99787.16;2090737;28;20210;-73
2022/06/03 04:41:53;;;;;;;21.88;19.73;;;;;;;11.35;100.00;99788.16;2090949;28;20267;-73
2022/06/03 04:43:31;;;;;;;21.75;19.85;;;;;;;11.42;100.00;99785.94;2074340;28;20197;-73
2022/06/03 04:45:21;;;;;;;21.85;19.63;;;;;;;11.51;100.00;99786.91;2090449;28;20201;-73
2022/06/03 04:47:09;;;;;;;22.88;20.50;;;;;;;11.61;100.00;99778.78;2073648;28;20211;-73
2022/06/03 04:49:03;;;;;;;22.50;20.33;;;;;;;11.73;100.00;99781.06;2080224;28;20230;-74
2022/06/03 04:50:28;;;;;;;22.73;20.45;;;;;;;11.83;100.00;99783.63;2090834;28;20178;-73
2022/06/03 04:52:21;;;;;;;22.90;20.60;;;;;;;11.89;100.00;99781.69;2089596;28;20222;-73
2022/06/03 04:54:15;;;;;;;24.73;22.42;;;;;;;11.95;100.00;99780.53;2090371;28;20564;-73
2022/06/03 04:55:53;;;;;;;23.92;21.60;;;;;;;11.99;100.00;99772.72;2089919;28;20218;-73
2022/06/03 04:57:19;;;;;;;24.30;22.05;;;;;;;12.06;100.00;99773.19;2086693;28;20218;-73
2022/06/03 04:58:48;;;;;;;23.88;21.65;;;;;;;12.12;100.00;99774.72;2089882;28;20290;-73
2022/06/03 05:00:17;;;;;;;24.88;22.58;;;;;;;12.19;100.00;99779.72;2085583;28;20187;-73
2022/06/03 05:01:51;;;;;;;23.42;21.27;;;;;;;12.22;100.00;99773.78;2090231;28;20211;-73
2022/06/03 05:03:35;;;;;;;22.52;20.58;;;;;;;12.26;100.00;99772.91;2090725;28;20183;-73
2022/06/03 05:05:09;;;;;;;22.20;19.92;;;;;;;12.31;100.00;99775.50;2090548;28;20226;-74
2022/06/03 05:06:47;;;;;;;21.75;19.83;;;;;;;12.37;100.00;99774.34;2090266;28;20183;-74
2022/06/03 05:08:22;;;;;;;22.60;20.35;;;;;;;12.43;100.00;99777.75;2089863;28;20242;-74
2022/06/03 05:10:02;;;;;;;23.02;20.77;;;;;;;12.49;100.00;99775.78;2070357;28;20530;-73
2022/06/03 05:11:35;;;;;;;22.85;20.80;;;;;;;12.55;100.00;99780.00;2090391;28;20602;-73
2022/06/03 05:13:17;;;;;;;23.98;21.20;;;;;;;12.60;100.00;99779.94;2090102;28;20206;-73
2022/06/03 05:14:50;;;;;;;24.05;20.95;;;;;;;12.71;100.00;99789.38;2090422;28;20174;-73
2022/06/03 05:16:31;;;;;;;22.88;20.58;;;;;;;12.80;100.00;99787.63;2089800;28;20183;-73
2022/06/03 05:18:00;;;;;;;22.40;20.02;;;;;;;12.88;100.00;99789.63;2090255;28;20195;-74
2022/06/03 05:19:45;;;;;;;22.63;20.50;;;;;;;12.97;100.00;99792.44;2090410;28;20269;-73
2022/06/03 05:20:55;;;;;;;22.20;20.40;;;;;;;13.01;100.00;99793.44;2089725;28;20284;-73
2022/06/03 05:22:28;;;;;;;22.50;20.45;;;;;;;13.07;100.00;99800.31;2081740;28;20302;-73
2022/06/03 05:23:40;;;;;;;21.38;19.42;;;;;;;13.12;100.00;99797.56;2090147;28;20176;-73
2022/06/03 05:25:06;;;;;;;21.05;19.08;;;;;;;13.16;100.00;99795.84;2090465;28;20179;-71
2022/06/03 05:26:43;;;;;;;21.70;19.65;;;;;;;13.21;100.00;99798.50;2090350;28;20243;-73
2022/06/03 05:28:18;;;;;;;22.27;20.23;;;;;;;13.32;100.00;99799.09;2090622;28;20228;-74
2022/06/03 05:29:52;;;;;;;21.80;19.98;;;;;;;13.37;100.00;99803.56;2090426;28;20171;-73
2022/06/03 05:31:25;;;;;;;21.98;20.08;;;;;;;13.41;100.00;99797.31;2076122;28;20188;-73
2022/06/03 05:32:44;;;;;;;20.98;19.30;;;;;;;13.52;100.00;99797.91;2090100;28;20197;-71
2022/06/03 05:34:14;;;;;;;20.67;18.65;;;;;;;13.57;100.00;99795.16;2090293;28;20292;-71
2022/06/03 05:35:44;;;;;;;21.85;19.80;;;;;;;13.69;100.00;99797.34;2086329;28;20230;-71
2022/06/03 05:36:56;;;;;;;21.63;19.63;;;;;;;13.77;100.00;99799.31;2089702;28;20309;-72
2022/06/03 05:38:32;;;;;;;22.92;20.83;;;;;;;13.82;100.00;99796.53;2090631;28;20175;-71
2022/06/03 05:40:04;;;;;;;20.85;18.98;;;;;;;13.93;100.00;99792.56;2090397;28;20672;-71
2022/06/03 05:43:17;;;;;;;20.27;18.52;;;;;;;14.06;100.00;99797.09;2089218;28;20269;-73
2022/06/03 05:44:26;;;;;;;20.88;18.98;;;;;;;14.15;100.00;99794.50;2090379;28;20179;-71
2022/06/03 05:45:51;;;;;;;20.40;18.52;;;;;;;14.18;100.00;99798.50;2090325;28;20591;-72
2022/06/03 05:47:00;;;;;;;19.58;18.00;;;;;;;14.26;100.00;99800.47;2090476;28;20182;-71
2022/06/03 05:48:05;;;;;;;20.17;18.38;;;;;;;14.33;100.00;99803.50;2090442;28;20593;-71
2022/06/03 05:49:22;;;;;;;20.25;18.45;;;;;;;14.38;100.00;99804.19;2090304;28;20210;-71
2022/06/03 05:50:31;;;;;;;21.02;19.13;;;;;;;14.40;100.00;99802.00;2089582;28;20669;-71
2022/06/03 05:51:46;;;;;;;20.95;19.15;;;;;;;14.43;100.00;99800.63;2082146;28;20231;-73
2022/06/03 05:53:03;;;;;;;23.83;19.67;;;;;;;14.49;100.00;99804.78;2089586;28;20202;-71
2022/06/03 05:54:14;;;;;;;20.70;18.80;;;;;;;14.50;100.00;99798.31;2089983;28;20183;-73
2022/06/03 05:55:31;;;;;;;21.25;19.05;;;;;;;14.58;100.00;99797.59;2090410;28;20180;-71
2022/06/03 05:56:41;;;;;;;20.65;18.65;;;;;;;14.68;100.00;99801.94;2090275;28;20179;-71
2022/06/03 05:58:07;;;;;;;19.95;18.25;;;;;;;14.72;100.00;99802.13;2090523;28;20600;-71
2022/06/03 05:59:16;;;;;;;21.20;18.67;;;;;;;14.71;100.00;99801.34;2089526;28;20206;-72
2022/06/03 06:00:44;;;;;;;20.45;18.48;;;;;;;14.80;100.00;99804.09;2089752;28;20289;-71
2022/06/03 06:02:01;;;;;;;19.80;17.92;;;;;;;14.84;100.00;99805.06;2085369;28;20234;-72
2022/06/03 06:03:16;;;;;;;20.45;18.58;;;;;;;14.88;100.00;99796.09;2090449;28;20183;-72
2022/06/03 06:04:26;;;;;;;20.35;18.45;;;;;;;15.05;100.00;99806.16;2090284;28;20175;-71
2022/06/03 06:05:35;;;;;;;19.95;18.40;;;;;;;15.16;100.00;99806.69;2090503;28;20187;-71
2022/06/03 06:06:52;;;;;;;20.63;18.67;;;;;;;15.26;100.00;99806.41;2088964;28;20245;-74
2022/06/03 06:08:05;;;;;;;23.08;18.95;;;;;;;15.27;100.00;99800.72;2089939;28;20220;-71
2022/06/03 06:09:17;;;;;;;19.33;17.77;;;;;;;15.28;100.00;99796.94;2089565;28;20186;-72
2022/06/03 06:10:31;;;;;;;20.00;18.25;;;;;;;15.36;100.00;99799.97;2089727;28;20187;-71
2022/06/03 06:11:40;;;;;;;19.60;18.05;;;;;;;15.40;100.00;99806.34;2090343;28;20207;-72
2022/06/03 06:12:53;;;;;;;19.10;17.70;;;;;;;15.44;100.00;99805.41;2089763;28;20785;-71
2022/06/03 06:14:19;;;;;;;22.23;18.13;;;;;;;15.43;100.00;99806.50;2082774;28;20233;-72
2022/06/03 06:15:56;;;;;;;19.88;18.05;;;;;;;15.57;100.00;99806.41;2085129;28;20221;-72
2022/06/03 06:17:01;;;;;;;19.42;17.73;;;;;;;15.65;100.00;99800.31;2084756;28;20195;-71
2022/06/03 06:18:10;;;;;;;19.17;17.70;;;;;;;15.69;100.00;99795.88;2091966;28;20610;-71
2022/06/03 06:19:35;;;;;;;19.50;17.80;;;;;;;15.70;100.00;99800.16;2091693;28;20556;-72
2022/06/03 06:20:54;;;;;;;18.60;17.20;;;;;;;15.83;100.00;99804.63;2092060;28;20675;-74
2022/06/03 06:22:09;;;;;;;19.92;18.00;;;;;;;15.83;100.00;99806.53;2090794;28;20305;-74
2022/06/03 06:23:15;;;;;;;19.60;18.05;;;;;;;15.95;100.00;99793.25;2091370;28;20549;-75
2022/06/03 06:24:23;;;;;;;19.50;18.00;;;;;;;15.99;100.00;99793.44;2091925;28;20173;-75
2022/06/03 06:25:30;;;;;;;19.40;17.60;;;;;;;16.01;100.00;99793.91;2092097;28;20175;-74
2022/06/03 06:26:52;;;;;;;19.47;17.87;;;;;;;16.05;100.00;99795.66;2091991;28;20410;-75
2022/06/03 06:28:02;;;;;;;19.20;17.77;;;;;;;16.16;100.00;99806.13;2091931;28;20440;-72
2022/06/03 06:29:34;;;;;;;19.07;17.60;;;;;;;16.21;100.00;99803.28;2091752;28;20433;-72
2022/06/03 06:30:50;;;;;;;18.73;17.20;;;;;;;16.23;100.00;99793.78;2074513;28;20989;-72